Time;durP1;ratioP1;P1;durP2;ratioP2;P2;SDS_P1;SDS_P2;PMS_P1;PMS_P2;Temp;Humidity;BMP_temperature;BMP_pressure;BME280_temperature;BME280_humidity;BME280_pressure;Samples;Min_cycle;Max_cycle;Signal;HPM_P1;HPM_P2
2022/07/18 00:01:01;;;;;;;8.50;4.53;;;17.40;99.90;;;;;;5032029;28;20051;-46
2022/07/18 00:03:27;;;;;;;7.97;4.15;;;17.40;99.90;;;;;;5032837;28;20045;-46
2022/07/18 00:05:53;;;;;;;7.25;4.50;;;17.40;99.90;;;;;;5033112;28;20037;-46
2022/07/18 00:08:18;;;;;;;9.40;4.45;;;17.40;99.90;;;;;;5033249;28;20045;-47
2022/07/18 00:10:44;;;;;;;9.18;4.90;;;17.40;99.90;;;;;;5033085;28;20041;-47
2022/07/18 00:13:10;;;;;;;10.63;4.88;;;17.40;99.90;;;;;;5033266;28;20116;-46
2022/07/18 00:15:36;;;;;;;8.95;4.35;;;17.40;99.90;;;;;;5033358;28;20039;-46
2022/07/18 00:18:03;;;;;;;10.10;4.75;;;17.40;99.90;;;;;;5033517;28;20052;-45
2022/07/18 00:20:29;;;;;;;10.00;4.90;;;17.40;99.90;;;;;;5039154;28;20039;-45
2022/07/18 00:22:55;;;;;;;9.77;4.93;;;17.30;99.90;;;;;;5053076;28;20044;-47
2022/07/18 00:25:22;;;;;;;9.38;4.88;;;17.40;99.90;;;;;;5052709;28;20068;-46
2022/07/18 00:27:48;;;;;;;7.53;4.53;;;17.40;99.90;;;;;;5053328;28;20049;-45
2022/07/18 00:30:14;;;;;;;9.57;4.57;;;17.40;99.90;;;;;;5053060;28;20182;-45
2022/07/18 00:32:40;;;;;;;8.93;4.93;;;17.40;99.90;;;;;;5053163;28;20029;-45
2022/07/18 00:35:06;;;;;;;10.60;4.75;;;17.40;99.90;;;;;;5052858;28;20481;-45
2022/07/18 00:37:32;;;;;;;8.50;5.05;;;17.40;99.90;;;;;;5053010;28;20049;-45
2022/07/18 00:39:58;;;;;;;7.70;4.18;;;17.40;99.90;;;;;;5052913;28;20047;-46
2022/07/18 00:42:24;;;;;;;9.27;5.32;;;17.40;99.90;;;;;;5053399;28;20082;-47
2022/07/18 00:44:56;;;;;;;9.13;4.78;;;17.40;99.90;;;;;;5052902;28;20047;-45
2022/07/18 00:47:22;;;;;;;9.70;5.22;;;17.30;99.90;;;;;;5068286;28;20059;-46
2022/07/18 00:49:48;;;;;;;7.57;4.15;;;17.30;99.90;;;;;;5052618;28;20040;-45
2022/07/18 00:52:13;;;;;;;8.65;4.85;;;17.30;99.90;;;;;;5052818;28;20538;-46
2022/07/18 00:54:40;;;;;;;9.63;4.70;;;17.20;99.90;;;;;;5052661;28;20029;-45
2022/07/18 00:57:06;;;;;;;9.45;5.43;;;17.30;99.90;;;;;;5051197;28;20083;-46
2022/07/18 01:02:16;;;;;;;9.52;4.85;;;17.20;99.90;;;;;;5068200;28;20045;-51
2022/07/18 01:04:42;;;;;;;10.70;5.47;;;17.20;99.90;;;;;;5051958;28;20068;-46
2022/07/18 01:07:09;;;;;;;10.40;4.78;;;17.20;99.90;;;;;;5053992;28;20090;-46
2022/07/18 01:09:35;;;;;;;11.23;5.15;;;17.10;99.90;;;;;;5056345;28;20098;-47
2022/07/18 01:12:01;;;;;;;9.05;5.60;;;17.20;99.90;;;;;;5056473;28;20427;-46
2022/07/18 01:14:27;;;;;;;8.63;4.65;;;17.20;99.90;;;;;;5056143;28;20059;-48
2022/07/18 01:16:53;;;;;;;8.40;5.03;;;17.10;99.90;;;;;;5055924;28;20120;-46
2022/07/18 01:19:18;;;;;;;10.98;4.88;;;17.10;99.90;;;;;;5056357;28;20115;-46
2022/07/18 01:21:44;;;;;;;9.35;4.45;;;17.10;99.90;;;;;;5039754;28;20120;-47
2022/07/18 01:24:10;;;;;;;8.07;4.22;;;17.10;99.90;;;;;;5036443;28;20065;-46
2022/07/18 01:26:36;;;;;;;8.77;4.90;;;17.10;99.90;;;;;;5035889;28;20080;-50
2022/07/18 01:29:02;;;;;;;8.43;4.80;;;17.00;99.90;;;;;;5035930;28;20100;-48
2022/07/18 01:31:33;;;;;;;10.00;4.85;;;17.00;99.90;;;;;;5036350;28;20041;-48
2022/07/18 01:33:59;;;;;;;8.48;5.03;;;16.90;99.90;;;;;;5036217;28;20571;-46
2022/07/18 01:36:25;;;;;;;8.40;4.95;;;16.90;99.90;;;;;;5035947;28;20034;-45
2022/07/18 01:38:51;;;;;;;9.40;4.60;;;16.90;99.90;;;;;;5036183;28;20048;-46
2022/07/18 01:41:16;;;;;;;9.02;5.18;;;16.80;99.90;;;;;;5036102;28;20108;-48
2022/07/18 01:43:42;;;;;;;10.65;5.53;;;16.90;99.90;;;;;;5051426;28;20107;-47
2022/07/18 01:46:10;;;;;;;9.43;4.65;;;16.90;99.90;;;;;;5036044;28;20069;-48
2022/07/18 01:48:40;;;;;;;10.13;5.60;;;16.90;99.90;;;;;;5035928;28;20053;-47
2022/07/18 01:51:10;;;;;;;9.25;5.28;;;16.80;99.90;;;;;;5035758;28;20120;-47
2022/07/18 01:53:40;;;;;;;9.15;5.40;;;16.80;99.90;;;;;;5035800;28;20048;-50
2022/07/18 01:56:07;;;;;;;9.40;5.68;;;16.80;99.90;;;;;;5035621;28;20046;-47
2022/07/18 01:58:32;;;;;;;9.60;5.35;;;16.70;99.90;;;;;;5035851;28;20072;-47
2022/07/18 02:00:58;;;;;;;11.70;5.50;;;16.70;99.90;;;;;;5035550;28;20490;-49
2022/07/18 02:03:24;;;;;;;9.80;5.55;;;16.70;99.90;;;;;;5035506;28;20116;-46
2022/07/18 02:05:49;;;;;;;8.75;5.65;;;16.70;99.90;;;;;;5050891;28;20041;-48
2022/07/18 02:08:15;;;;;;;9.10;5.28;;;16.60;99.90;;;;;;5035160;28;20041;-48
2022/07/18 02:10:41;;;;;;;10.65;5.65;;;16.60;99.90;;;;;;5035014;28;20497;-46
2022/07/18 02:13:06;;;;;;;10.18;5.60;;;16.70;99.90;;;;;;5035022;28;20041;-46
2022/07/18 02:15:32;;;;;;;9.20;5.25;;;16.70;99.90;;;;;;5034887;28;20486;-46
2022/07/18 02:17:58;;;;;;;9.57;5.20;;;16.70;99.90;;;;;;5035226;28;20052;-49
2022/07/18 02:20:24;;;;;;;8.07;5.22;;;16.70;99.90;;;;;;5040698;28;20495;-46
2022/07/18 02:22:50;;;;;;;12.30;6.15;;;16.70;99.90;;;;;;5054710;28;20056;-50
2022/07/18 02:25:16;;;;;;;8.52;4.82;;;16.70;99.90;;;;;;5054485;28;20060;-47
2022/07/18 02:27:42;;;;;;;9.68;5.15;;;16.70;99.90;;;;;;5053276;28;20049;-47
2022/07/18 02:30:09;;;;;;;10.05;5.78;;;16.70;99.90;;;;;;5054931;28;20076;-51
2022/07/18 02:32:37;;;;;;;9.70;5.10;;;16.70;99.90;;;;;;5054894;28;20049;-46
2022/07/18 02:35:06;;;;;;;10.30;6.00;;;16.70;99.90;;;;;;5069911;28;20056;-47
2022/07/18 02:37:32;;;;;;;12.40;5.78;;;16.70;99.90;;;;;;5054579;28;20485;-45
2022/07/18 02:39:58;;;;;;;20.88;6.43;;;16.70;99.90;;;;;;5054831;28;20071;-47
2022/07/18 02:42:24;;;;;;;10.50;5.95;;;16.70;99.90;;;;;;5054732;28;20373;-49
2022/07/18 02:44:49;;;;;;;10.80;6.50;;;16.70;99.90;;;;;;5070049;28;20037;-45
2022/07/18 02:47:15;;;;;;;12.48;5.78;;;16.60;99.90;;;;;;5054265;28;20041;-45
2022/07/18 02:49:40;;;;;;;12.65;6.35;;;16.60;99.90;;;;;;5054566;28;20056;-47
2022/07/18 02:52:08;;;;;;;10.98;5.93;;;16.60;99.90;;;;;;5069957;28;20041;-46
2022/07/18 02:54:36;;;;;;;9.52;5.88;;;16.60;99.90;;;;;;5054270;28;20052;-45
2022/07/18 02:57:02;;;;;;;13.23;7.07;;;16.60;99.90;;;;;;5053294;28;20044;-45
2022/07/18 02:59:28;;;;;;;13.30;6.43;;;16.60;99.90;;;;;;5054486;28;20083;-45
2022/07/18 03:01:55;;;;;;;13.10;6.65;;;16.60;99.90;;;;;;5054578;28;20037;-46
2022/07/18 03:04:21;;;;;;;14.38;7.03;;;16.60;99.90;;;;;;5054595;28;20112;-45
2022/07/18 03:06:48;;;;;;;12.32;6.10;;;16.60;99.90;;;;;;5054639;28;20033;-45
2022/07/18 03:09:14;;;;;;;10.57;6.38;;;16.60;99.90;;;;;;5054286;28;20424;-46
2022/07/18 03:11:40;;;;;;;10.48;6.20;;;16.60;99.90;;;;;;5054014;28;20037;-44
2022/07/18 03:14:06;;;;;;;10.98;6.68;;;16.60;99.90;;;;;;5069245;28;20048;-44
2022/07/18 03:16:32;;;;;;;10.70;5.93;;;16.60;99.90;;;;;;5053735;28;20072;-46
2022/07/18 03:18:58;;;;;;;10.23;6.18;;;16.60;99.90;;;;;;5054262;28;20481;-45
2022/07/18 03:21:23;;;;;;;10.40;6.88;;;16.60;99.90;;;;;;5040012;28;20046;-47
2022/07/18 03:23:49;;;;;;;13.73;7.30;;;16.60;99.90;;;;;;5033677;28;20045;-47
2022/07/18 03:26:15;;;;;;;11.63;6.53;;;16.60;99.90;;;;;;5048878;28;20540;-49
2022/07/18 03:28:41;;;;;;;13.43;7.05;;;16.60;99.90;;;;;;5033729;28;20056;-47
2022/07/18 03:31:07;;;;;;;11.60;7.28;;;16.50;99.90;;;;;;5033345;28;20363;-50
2022/07/18 03:33:32;;;;;;;14.27;7.38;;;16.40;99.90;;;;;;5033797;28;20076;-49
2022/07/18 03:35:58;;;;;;;10.90;7.13;;;16.30;99.90;;;;;;5033562;28;20073;-49
2022/07/18 03:38:24;;;;;;;12.65;7.63;;;16.30;99.90;;;;;;5033394;28;20049;-48
2022/07/18 03:40:49;;;;;;;12.38;6.68;;;16.30;99.90;;;;;;5033627;28;20091;-48
2022/07/18 03:43:15;;;;;;;11.65;6.95;;;16.30;99.90;;;;;;5048849;28;20049;-45
2022/07/18 03:45:41;;;;;;;10.57;6.45;;;16.40;99.90;;;;;;5033370;28;20493;-45
2022/07/18 03:48:06;;;;;;;11.95;7.00;;;16.40;99.90;;;;;;5033101;28;20037;-44
2022/07/18 03:50:33;;;;;;;10.95;6.95;;;16.40;99.90;;;;;;5033504;28;20042;-45
2022/07/18 03:52:59;;;;;;;11.85;6.75;;;16.30;99.90;;;;;;5031773;28;20077;-46
2022/07/18 03:55:25;;;;;;;11.25;6.82;;;16.20;99.90;;;;;;5033585;28;20042;-46
2022/07/18 03:57:51;;;;;;;12.65;7.57;;;16.20;99.90;;;;;;5033161;28;20052;-46
2022/07/18 04:00:17;;;;;;;11.77;8.07;;;16.20;99.90;;;;;;5033293;28;20079;-47
2022/07/18 04:02:46;;;;;;;10.82;6.97;;;16.20;99.90;;;;;;5033177;28;20041;-45
2022/07/18 04:05:13;;;;;;;13.60;6.65;;;16.20;99.90;;;;;;5032882;28;20494;-45
2022/07/18 04:07:40;;;;;;;13.35;7.95;;;16.20;99.90;;;;;;5033047;28;20045;-47
2022/07/18 04:10:08;;;;;;;13.25;6.95;;;16.20;99.90;;;;;;5033085;28;20156;-46
2022/07/18 04:12:34;;;;;;;12.55;7.75;;;16.30;99.90;;;;;;5032928;28;20080;-48
2022/07/18 04:15:00;;;;;;;11.70;6.72;;;16.20;99.90;;;;;;5032541;28;20159;-45
2022/07/18 04:17:25;;;;;;;15.57;7.38;;;16.30;99.90;;;;;;5031471;28;20483;-45
2022/07/18 04:19:52;;;;;;;12.85;7.22;;;16.30;99.90;;;;;;5033625;28;20126;-45
2022/07/18 04:22:17;;;;;;;12.93;7.28;;;16.30;99.90;;;;;;5052659;28;20043;-45
2022/07/18 04:24:43;;;;;;;11.30;6.70;;;16.30;99.90;;;;;;5052352;28;20397;-45
2022/07/18 04:27:09;;;;;;;12.20;6.82;;;16.40;99.90;;;;;;5052162;28;20056;-46
2022/07/18 04:29:36;;;;;;;11.57;6.72;;;16.30;99.90;;;;;;5052684;28;20130;-47
2022/07/18 04:32:02;;;;;;;12.45;7.10;;;16.40;99.90;;;;;;5052532;28;20111;-44
2022/07/18 04:34:27;;;;;;;11.68;6.95;;;16.40;99.90;;;;;;5052544;28;20048;-45
2022/07/18 04:36:53;;;;;;;12.50;6.50;;;16.40;99.90;;;;;;5052671;28;20036;-45
2022/07/18 04:39:19;;;;;;;11.48;7.30;;;16.50;99.90;;;;;;5052525;28;20037;-45
2022/07/18 04:41:44;;;;;;;11.70;6.88;;;16.50;99.90;;;;;;5051684;28;20132;-46
2022/07/18 04:44:10;;;;;;;13.32;7.22;;;16.50;99.90;;;;;;5052410;28;20037;-45
2022/07/18 04:46:36;;;;;;;10.93;6.82;;;16.50;99.90;;;;;;5052633;28;20881;-47
2022/07/18 04:49:01;;;;;;;10.43;6.13;;;16.50;99.90;;;;;;5052118;28;20044;-45
2022/07/18 04:51:27;;;;;;;11.45;6.38;;;16.60;99.90;;;;;;5052442;28;20473;-47
2022/07/18 04:53:54;;;;;;;10.93;6.90;;;16.70;99.90;;;;;;5052125;28;20468;-49
2022/07/18 04:56:21;;;;;;;12.32;5.88;;;16.70;99.90;;;;;;5052481;28;20445;-44
2022/07/18 04:58:47;;;;;;;16.58;7.07;;;16.70;99.90;;;;;;5052051;28;20493;-47
2022/07/18 05:01:13;;;;;;;10.25;6.75;;;16.70;99.90;;;;;;5067424;28;20087;-46
2022/07/18 05:03:39;;;;;;;11.60;7.07;;;16.70;99.90;;;;;;5052161;28;20099;-45
2022/07/18 05:06:04;;;;;;;10.65;6.50;;;16.80;99.90;;;;;;5052303;28;20481;-44
2022/07/18 05:08:30;;;;;;;10.48;6.25;;;16.70;99.90;;;;;;5051862;28;20052;-45
2022/07/18 05:10:56;;;;;;;10.73;6.32;;;16.80;99.90;;;;;;5052222;28;20033;-45
2022/07/18 05:13:21;;;;;;;10.50;6.45;;;16.80;99.90;;;;;;5051967;28;20116;-46
2022/07/18 05:15:47;;;;;;;11.68;6.30;;;16.80;99.90;;;;;;5051991;28;20067;-45
2022/07/18 05:18:13;;;;;;;13.20;6.18;;;16.70;99.90;;;;;;5050606;28;20095;-46
2022/07/18 05:20:38;;;;;;;14.65;5.55;;;16.80;99.90;;;;;;5044232;28;20045;-52
2022/07/18 05:23:04;;;;;;;10.27;6.38;;;16.80;99.90;;;;;;5032099;28;20042;-45
2022/07/18 05:25:30;;;;;;;10.52;5.88;;;16.90;99.90;;;;;;5032067;28;20061;-49
2022/07/18 05:27:55;;;;;;;12.32;5.95;;;17.00;99.90;;;;;;5032070;28;20173;-48
2022/07/18 05:30:23;;;;;;;10.93;5.80;;;17.00;99.90;;;;;;5031819;28;20393;-49
2022/07/18 05:32:49;;;;;;;11.60;5.78;;;17.10;99.90;;;;;;5031912;28;20045;-47
2022/07/18 05:35:15;;;;;;;11.27;5.85;;;17.10;99.90;;;;;;5031703;28;20038;-50
2022/07/18 05:37:42;;;;;;;11.48;5.40;;;17.00;99.90;;;;;;5030550;28;20049;-48
2022/07/18 05:40:10;;;;;;;9.85;5.90;;;17.00;99.90;;;;;;5031923;28;20056;-46
2022/07/18 05:42:35;;;;;;;10.10;5.25;;;17.10;99.90;;;;;;5032032;28;20048;-44
2022/07/18 05:45:01;;;;;;;9.52;5.28;;;17.10;99.90;;;;;;5031923;28;20456;-46
2022/07/18 05:47:27;;;;;;;10.85;5.50;;;17.10;99.90;;;;;;5031600;28;20127;-45
2022/07/18 05:49:53;;;;;;;9.63;5.22;;;17.10;99.90;;;;;;5031708;28;20124;-45
2022/07/18 05:52:18;;;;;;;10.70;5.40;;;17.20;99.90;;;;;;5031675;28;20033;-47
2022/07/18 05:54:44;;;;;;;10.18;5.05;;;17.20;99.90;;;;;;5017462;28;20057;-49
2022/07/18 05:57:10;;;;;;;14.05;6.15;;;17.20;99.90;;;;;;5035500;28;20484;-47
2022/07/18 05:59:35;;;;;;;8.52;5.18;;;17.40;99.90;;;;;;5035498;28;20045;-50
2022/07/18 06:02:01;;;;;;;11.45;5.28;;;17.40;99.90;;;;;;5035237;28;20452;-46
2022/07/18 06:04:26;;;;;;;9.95;5.22;;;17.50;99.90;;;;;;5035396;28;20426;-45
2022/07/18 06:06:52;;;;;;;12.00;5.63;;;17.50;99.90;;;;;;5035252;28;20496;-46
2022/07/18 06:09:18;;;;;;;11.82;5.50;;;17.60;99.90;;;;;;5035358;28;20554;-45
2022/07/18 06:11:44;;;;;;;10.77;4.60;;;17.70;99.90;;;;;;5035061;28;20474;-45
2022/07/18 06:14:10;;;;;;;8.63;4.63;;;17.80;99.90;;;;;;5035288;28;20042;-45
2022/07/18 06:16:36;;;;;;;9.80;4.63;;;17.80;99.90;;;;;;5034904;28;20103;-46
2022/07/18 06:19:02;;;;;;;10.93;4.43;;;17.90;99.90;;;;;;5035279;28;20050;-45
2022/07/18 06:21:28;;;;;;;8.10;4.32;;;18.00;99.90;;;;;;5049182;28;20489;-46
2022/07/18 06:23:54;;;;;;;9.63;4.38;;;18.10;99.90;;;;;;5054831;28;20040;-45
2022/07/18 06:26:20;;;;;;;13.07;3.70;;;18.30;99.90;;;;;;5070150;28;20123;-50
2022/07/18 06:28:46;;;;;;;11.18;3.85;;;18.40;99.90;;;;;;5054624;28;20083;-45
2022/07/18 06:31:14;;;;;;;7.45;3.00;;;18.60;99.90;;;;;;5054810;28;20115;-45
2022/07/18 06:33:41;;;;;;;8.73;3.83;;;18.70;99.90;;;;;;5054903;28;20116;-48
2022/07/18 06:36:06;;;;;;;10.00;3.45;;;18.80;99.90;;;;;;5054733;28;20429;-47
2022/07/18 06:38:32;;;;;;;9.98;3.15;;;18.80;99.90;;;;;;5054552;28;20120;-49
2022/07/18 06:40:58;;;;;;;7.50;3.05;;;18.90;99.90;;;;;;5086613;28;20048;-48
2022/07/18 06:43:24;;;;;;;7.90;3.42;;;19.00;99.90;;;;;;5054340;28;20070;-50
2022/07/18 06:45:52;;;;;;;9.32;3.30;;;19.00;99.90;;;;;;5054556;28;20052;-46
2022/07/18 06:48:17;;;;;;;9.10;3.17;;;19.20;99.90;;;;;;5054374;28;20084;-47
2022/07/18 06:50:43;;;;;;;8.82;4.03;;;19.30;99.90;;;;;;5054181;28;20064;-49
2022/07/18 06:53:09;;;;;;;9.45;3.25;;;19.40;99.90;;;;;;5054442;28;20029;-47
2022/07/18 06:55:35;;;;;;;9.02;3.35;;;19.60;99.90;;;;;;5054186;28;20036;-46
2022/07/18 06:58:01;;;;;;;7.15;2.90;;;19.70;99.90;;;;;;5054154;28;20041;-48
2022/07/18 07:00:27;;;;;;;8.07;2.95;;;19.60;99.90;;;;;;5069371;28;20119;-49
2022/07/18 07:02:53;;;;;;;7.90;2.70;;;19.70;99.90;;;;;;5054077;28;20394;-45
2022/07/18 07:05:20;;;;;;;8.48;3.20;;;19.80;99.90;;;;;;5053267;28;20080;-48
2022/07/18 07:07:47;;;;;;;11.88;3.78;;;19.90;99.90;;;;;;5054225;28;20044;-48
2022/07/18 07:10:13;;;;;;;9.35;3.20;;;19.80;99.90;;;;;;5054063;28;20597;-48
2022/07/18 07:12:45;;;;;;;11.85;3.40;;;19.90;99.90;;;;;;5053978;28;20032;-50
2022/07/18 07:15:11;;;;;;;;;;;20.10;99.90;;;;;;5069448;28;20125;-51
2022/07/18 07:17:37;;;;;;;11.48;3.45;;;20.20;99.90;;;;;;5054035;28;19963;-47
2022/07/18 07:20:05;;;;;;;6.70;2.70;;;20.30;99.90;;;;;;5066398;28;20052;-50
2022/07/18 07:22:30;;;;;;;9.25;2.95;;;20.40;99.90;;;;;;5033924;28;20044;-50
2022/07/18 07:24:56;;;;;;;10.73;2.85;;;20.60;99.90;;;;;;5034025;28;20397;-50
2022/07/18 07:27:22;;;;;;;9.40;2.60;;;20.80;99.90;;;;;;5032001;28;20057;-46
2022/07/18 07:29:47;;;;;;;7.68;2.72;;;21.00;99.90;;;;;;5033907;28;20090;-45
2022/07/18 07:32:13;;;;;;;8.52;2.55;;;21.10;99.90;;;;;;5033684;28;20041;-47
2022/07/18 07:34:38;;;;;;;7.45;2.53;;;21.20;99.90;;;;;;5033853;28;20044;-48
2022/07/18 07:37:04;;;;;;;6.15;2.45;;;21.40;99.90;;;;;;5033735;28;20064;-46
2022/07/18 07:39:30;;;;;;;7.53;2.83;;;21.50;99.90;;;;;;5033442;28;20033;-46
2022/07/18 07:41:55;;;;;;;6.63;2.60;;;21.40;99.90;;;;;;5033481;28;20061;-47
2022/07/18 07:44:21;;;;;;;6.68;2.40;;;21.40;99.90;;;;;;5033533;28;20474;-46
2022/07/18 07:46:47;;;;;;;8.00;2.53;;;21.40;99.90;;;;;;5032052;28;20116;-46
2022/07/18 07:49:12;;;;;;;7.60;2.55;;;21.40;99.90;;;;;;5033408;28;20718;-46
2022/07/18 07:51:38;;;;;;;7.72;2.40;;;21.50;99.90;;;;;;5033478;28;20399;-46
2022/07/18 07:54:05;;;;;;;7.22;2.75;;;21.60;99.90;;;;;;5031838;28;20096;-46
2022/07/18 07:56:31;;;;;;;8.30;2.55;;;21.80;99.90;;;;;;5033326;28;20076;-47
2022/07/18 07:58:57;;;;;;;9.20;2.83;;;21.90;99.90;;;;;;5033427;28;20424;-49
2022/07/18 08:01:23;;;;;;;6.00;2.50;;;22.00;99.90;;;;;;5033012;28;20095;-46
2022/07/18 08:03:49;;;;;;;8.40;2.85;;;22.10;99.90;;;;;;5031615;28;20045;-46
2022/07/18 08:06:15;;;;;;;7.38;2.42;;;22.10;99.90;;;;;;5033349;28;20052;-51
2022/07/18 08:08:41;;;;;;;6.13;2.30;;;22.00;99.90;;;;;;5033005;28;20080;-46
2022/07/18 08:11:07;;;;;;;5.60;2.10;;;22.10;99.90;;;;;;5048335;28;20076;-46
2022/07/18 08:13:32;;;;;;;7.55;2.15;;;22.30;99.90;;;;;;5033049;28;20393;-46
2022/07/18 08:15:58;;;;;;;8.32;2.30;;;22.50;99.90;;;;;;5032629;28;20041;-46
2022/07/18 08:18:24;;;;;;;7.38;2.10;;;22.60;99.90;;;;;;5032781;28;20107;-46
2022/07/18 08:20:49;;;;;;;6.20;1.92;;;22.70;99.90;;;;;;5041707;28;20041;-47
2022/07/18 08:23:17;;;;;;;6.68;1.92;;;22.90;99.90;;;;;;5052394;28;20048;-47
2022/07/18 08:25:44;;;;;;;6.55;1.90;;;23.00;99.90;;;;;;5052380;28;20497;-47
2022/07/18 08:28:11;;;;;;;6.25;2.20;;;23.10;99.90;;;;;;5052591;28;20044;-44
2022/07/18 08:30:39;;;;;;;8.10;2.15;;;23.20;99.90;;;;;;5052798;28;20089;-46
2022/07/18 08:33:05;;;;;;;7.43;2.15;;;23.20;99.90;;;;;;5052610;28;20085;-46
2022/07/18 08:35:31;;;;;;;6.88;2.33;;;23.30;99.90;;;;;;5052562;28;20409;-45
2022/07/18 08:37:58;;;;;;;7.32;2.00;;;23.30;99.90;;;;;;5052597;28;20048;-50
2022/07/18 08:40:24;;;;;;;6.85;2.10;;;23.40;99.90;;;;;;5052398;28;20175;-46
2022/07/18 08:42:52;;;;;;;4.43;1.75;;;23.40;99.90;;;;;;5052481;28;20134;-45
2022/07/18 08:45:23;;;;;;;7.95;1.67;;;23.30;99.90;;;;;;5052448;28;20051;-45
2022/07/18 08:47:50;;;;;;;5.80;1.70;;;23.30;99.90;;;;;;5052379;28;20045;-46
2022/07/18 08:50:16;;;;;;;6.78;2.35;;;23.30;99.90;;;;;;5052495;28;20072;-47
2022/07/18 08:52:43;;;;;;;4.65;1.92;;;23.20;99.90;;;;;;5050757;28;20044;-45
2022/07/18 08:55:10;;;;;;;6.18;1.92;;;23.20;99.90;;;;;;5050997;28;20051;-45
2022/07/18 08:57:36;;;;;;;7.38;1.90;;;23.20;99.90;;;;;;5067517;28;20073;-47
2022/07/18 09:00:06;;;;;;;5.72;1.60;;;23.10;99.90;;;;;;5052371;28;20072;-52
2022/07/18 09:02:32;;;;;;;5.47;1.83;;;23.20;99.90;;;;;;5050633;28;20049;-49
2022/07/18 09:05:00;;;;;;;7.47;2.00;;;23.30;99.90;;;;;;5052040;28;20160;-47
2022/07/18 09:07:29;;;;;;;5.13;1.50;;;23.40;99.90;;;;;;5051821;28;20490;-49
2022/07/18 09:09:57;;;;;;;5.85;1.75;;;23.50;99.90;;;;;;5052073;28;20036;-50
2022/07/18 09:12:25;;;;;;;3.83;1.30;;;23.50;99.90;;;;;;5052033;28;20049;-49
2022/07/18 09:14:51;;;;;;;8.23;1.95;;;23.60;99.90;;;;;;5052184;28;20037;-50
2022/07/18 09:17:25;;;;;;;8.57;1.90;;;23.70;99.90;;;;;;5051970;28;20573;-47
2022/07/18 09:20:07;;;;;;;4.50;1.55;;;23.80;99.90;;;;;;5049804;28;20071;-48
2022/07/18 09:22:37;;;;;;;7.30;1.70;;;23.90;99.90;;;;;;5032250;28;20041;-45
2022/07/18 09:25:13;;;;;;;5.65;1.80;;;24.00;99.90;;;;;;5032173;28;20398;-48
2022/07/18 09:27:48;;;;;;;7.72;1.75;;;24.20;99.90;;;;;;5032358;28;20513;-48
2022/07/18 09:30:21;;;;;;;7.80;1.77;;;24.40;99.90;;;;;;5035915;28;20043;-47
2022/07/18 09:32:54;;;;;;;6.00;2.10;;;24.50;99.90;;;;;;5036017;28;20037;-47
2022/07/18 09:35:27;;;;;;;6.57;2.15;;;24.60;99.90;;;;;;5034471;28;20037;-49
2022/07/18 09:37:56;;;;;;;9.20;2.10;;;24.50;99.90;;;;;;5035663;28;20532;-46
2022/07/18 09:40:28;;;;;;;5.63;1.80;;;24.60;99.90;;;;;;5035789;28;20053;-45
2022/07/18 09:42:57;;;;;;;5.93;2.17;;;24.60;99.90;;;;;;5035656;28;20477;-49
2022/07/18 09:45:29;;;;;;;7.22;2.10;;;24.70;99.90;;;;;;5035455;28;20045;-45
2022/07/18 09:48:01;;;;;;;6.13;1.73;;;24.80;99.90;;;;;;5034433;28;20056;-48
2022/07/18 09:50:36;;;;;;;6.88;2.15;;;24.90;99.90;;;;;;5034292;28;20478;-47
2022/07/18 09:53:14;;;;;;;11.55;2.65;;;24.90;99.90;;;;;;5035384;28;20129;-47
2022/07/18 09:55:47;;;;;;;7.10;2.17;;;25.10;99.90;;;;;;5035353;28;20506;-46
2022/07/18 09:58:18;;;;;;;7.03;2.03;;;25.10;99.90;;;;;;5035281;28;20079;-47
2022/07/18 10:00:45;;;;;;;7.55;2.13;;;25.10;99.90;;;;;;5035611;28;20041;-45
2022/07/18 10:03:11;;;;;;;7.15;2.08;;;25.20;99.90;;;;;;5050775;28;20103;-46
2022/07/18 10:05:39;;;;;;;7.65;2.25;;;25.20;99.90;;;;;;5035494;28;20073;-47
2022/07/18 10:08:08;;;;;;;6.55;1.85;;;25.30;99.70;;;;;;5035313;28;20045;-47
2022/07/18 10:10:34;;;;;;;8.70;2.30;;;25.30;99.90;;;;;;5035181;28;20046;-45
2022/07/18 10:13:01;;;;;;;5.93;1.75;;;25.40;99.90;;;;;;5035104;28;20092;-46
2022/07/18 10:15:30;;;;;;;6.20;1.90;;;25.40;99.90;;;;;;5035038;28;20527;-46
2022/07/18 10:17:57;;;;;;;7.38;2.10;;;25.60;99.90;;;;;;5035146;28;20056;-49
2022/07/18 10:20:29;;;;;;;7.28;2.60;;;25.70;99.60;;;;;;5040149;28;20037;-49
2022/07/18 10:22:58;;;;;;;7.53;2.20;;;25.70;98.80;;;;;;5055089;28;20049;-47
2022/07/18 10:25:24;;;;;;;6.60;2.25;;;25.90;98.70;;;;;;5053409;28;20048;-47
2022/07/18 10:28:01;;;;;;;6.60;2.05;;;26.00;98.70;;;;;;5054150;28;20090;-46
2022/07/18 10:30:42;;;;;;;5.88;2.25;;;26.10;97.90;;;;;;5054968;28;20064;-46
2022/07/18 10:33:47;;;;;;;6.05;2.20;;;26.20;97.90;;;;;;5054691;28;20045;-47
2022/07/18 10:36:14;;;;;;;6.75;2.70;;;26.20;97.30;;;;;;5054795;28;20036;-45
2022/07/18 10:39:05;;;;;;;6.40;2.35;;;26.30;97.00;;;;;;5054115;28;20124;-47
2022/07/18 10:41:30;;;;;;;6.15;3.00;;;26.50;98.20;;;;;;5054489;28;20045;-45
2022/07/18 10:43:56;;;;;;;6.50;2.80;;;26.70;96.90;;;;;;5054298;28;20379;-45
2022/07/18 10:46:22;;;;;;;6.88;3.05;;;26.50;96.00;;;;;;5054443;28;20057;-45
2022/07/18 10:48:50;;;;;;;7.53;2.88;;;26.60;97.00;;;;;;5054391;28;20037;-45
2022/07/18 10:51:17;;;;;;;7.13;2.88;;;26.70;94.90;;;;;;5054455;28;20388;-51
2022/07/18 10:54:01;;;;;;;7.47;3.10;;;26.70;96.30;;;;;;5054040;28;20037;-49
2022/07/18 10:56:35;;;;;;;9.43;2.75;;;26.90;95.80;;;;;;5054189;28;20048;-45
2022/07/18 10:59:16;;;;;;;6.53;3.25;;;27.10;97.00;;;;;;5054144;28;20044;-44
2022/07/18 11:01:51;;;;;;;7.50;2.67;;;27.10;95.20;;;;;;5054497;28;20411;-46
2022/07/18 11:04:24;;;;;;;7.18;2.95;;;27.30;96.30;;;;;;5053976;28;20048;-46
2022/07/18 11:07:03;;;;;;;6.57;2.88;;;27.30;96.10;;;;;;5054282;28;20111;-51
2022/07/18 11:09:37;;;;;;;5.63;2.50;;;27.20;96.20;;;;;;5069259;28;20098;-49
2022/07/18 11:12:20;;;;;;;7.97;3.08;;;27.40;94.60;;;;;;5054075;28;20037;-47
2022/07/18 11:15:01;;;;;;;6.95;3.10;;;27.60;96.10;;;;;;5053959;28;20041;-46
2022/07/18 11:17:52;;;;;;;7.07;3.57;;;27.50;94.70;;;;;;5054028;28;20048;-46
2022/07/18 11:20:23;;;;;;;7.20;2.85;;;27.50;95.00;;;;;;5048863;28;20052;-48
2022/07/18 11:22:49;;;;;;;;;;;27.60;95.80;;;;;;5034390;28;20045;-47
2022/07/18 11:25:17;;;;;;;6.03;2.92;;;27.80;94.70;;;;;;5034169;28;19924;-49
2022/07/18 11:27:43;;;;;;;7.32;3.25;;;27.90;94.20;;;;;;5033681;28;20044;-48
2022/07/18 11:30:10;;;;;;;7.93;3.30;;;27.70;93.60;;;;;;5033846;28;20379;-51
2022/07/18 11:32:36;;;;;;;7.70;3.50;;;27.80;93.50;;;;;;5033810;28;20047;-46
2022/07/18 11:35:05;;;;;;;7.00;3.00;;;27.80;94.20;;;;;;5033550;28;20121;-49
2022/07/18 11:37:31;;;;;;;8.90;3.40;;;27.90;94.70;;;;;;5048377;28;20540;-47
2022/07/18 11:40:08;;;;;;;5.95;2.67;;;28.10;94.50;;;;;;5033682;28;20457;-49
2022/07/18 11:42:36;;;;;;;7.43;2.80;;;28.10;94.30;;;;;;5033538;28;20427;-52
2022/07/18 11:45:01;;;;;;;7.20;2.80;;;28.00;94.10;;;;;;5033396;28;20080;-52
2022/07/18 11:47:27;;;;;;;7.10;2.88;;;28.20;94.10;;;;;;5033525;28;20084;-48
2022/07/18 11:49:56;;;;;;;7.20;3.13;;;28.10;93.80;;;;;;5033231;28;20132;-50
2022/07/18 11:52:22;;;;;;;8.15;3.25;;;28.30;93.40;;;;;;5033164;28;20116;-49
2022/07/18 11:54:47;;;;;;;7.30;2.92;;;28.30;93.70;;;;;;5032204;28;20149;-46
2022/07/18 11:57:25;;;;;;;8.68;3.10;;;28.30;93.60;;;;;;5033483;28;20044;-46
2022/07/18 11:59:50;;;;;;;7.68;3.05;;;28.40;93.20;;;;;;5033142;28;20042;-47
2022/07/18 12:02:16;;;;;;;6.78;3.40;;;28.30;92.70;;;;;;5032109;28;20099;-46
2022/07/18 12:04:42;;;;;;;7.88;2.80;;;28.50;92.90;;;;;;5033146;28;20116;-46
2022/07/18 12:07:16;;;;;;;7.93;2.95;;;28.60;93.00;;;;;;5033225;28;20069;-45
2022/07/18 12:09:42;;;;;;;6.93;3.20;;;28.40;93.40;;;;;;5048268;28;20045;-46
2022/07/18 12:12:13;;;;;;;9.60;3.40;;;28.20;92.40;;;;;;5033153;28;20088;-46
2022/07/18 12:14:39;;;;;;;7.68;3.05;;;28.20;92.60;;;;;;5033083;28;20385;-47
2022/07/18 12:17:05;;;;;;;6.97;3.25;;;28.40;93.70;;;;;;5032833;28;20429;-47
2022/07/18 12:19:37;;;;;;;9.15;3.15;;;28.30;92.90;;;;;;5032793;28;20532;-45
2022/07/18 12:22:03;;;;;;;8.70;3.17;;;28.50;93.50;;;;;;5051893;28;20037;-47
2022/07/18 12:24:32;;;;;;;7.70;3.50;;;28.80;93.30;;;;;;5052824;28;20583;-50
2022/07/18 12:27:25;;;;;;;8.38;3.90;;;28.60;92.80;;;;;;5052702;28;20040;-50
2022/07/18 12:30:14;;;;;;;7.63;3.75;;;28.40;92.40;;;;;;5067592;28;20088;-50
2022/07/18 12:32:41;;;;;;;9.40;3.13;;;28.60;92.60;;;;;;5067440;28;20634;-50
2022/07/18 12:35:10;;;;;;;8.25;3.38;;;28.70;93.30;;;;;;5067978;28;20051;-47
2022/07/18 12:37:36;;;;;;;8.82;3.60;;;28.60;92.50;;;;;;5052537;28;20124;-50
2022/07/18 12:40:11;;;;;;;7.00;3.03;;;29.00;93.40;;;;;;5052479;28;20168;-47
2022/07/18 12:42:39;;;;;;;8.90;3.67;;;28.70;92.40;;;;;;5052419;28;20044;-47
2022/07/18 12:45:06;;;;;;;8.27;3.22;;;28.30;92.80;;;;;;5052493;28;20167;-47
2022/07/18 12:47:32;;;;;;;6.95;3.22;;;28.20;92.70;;;;;;5052107;28;20118;-50